Aérodrome :
LOGIN :

S'inscrire | Disclaimer

   EN    FR    IT 

 










Légende :    VFR   VFR Marginal   IFR   IFR Intensif   IFR Très Intensif
Visi : 
Plafond : 
>= 8 km
>= 3000ft
5 à 8 km
1000 à 3000 ft
1500m à 5 km
500 à 1000 ft
800 à 1500m
200 à 500 ft
< 800m
< 200 ft
Symboles :   Orages  Brouillard  Fortes neiges  Fortes précipitations  Vent > 20 kt
SIGMETs :   Divers  Orages  Givrage  Turbulence  Onde Orograph.  Cendres Volcan.







- Altitude de l'aérodrome : 586 ft


LIMN - Cameri Air Force Base

DERNIER METAR :
  • 221755Z 28002KT CAVOK 03/00 Q1013 RMK SKC VIS MIN 9999 BLU

METARs EXPIRÉS :
  • 221655Z VRB02KT CAVOK 06/01 Q1013 RMK FEW FEW100 VIS MIN 9999 BLU
  • 221555Z 00000KT CAVOK 09/01 Q1013 RMK FEW FEW100 VIS MIN 9999 BLU

TAF TAF LIMN
Valide du 22 à 18h jusqu'au 23 à 03h UTC


221700Z 2218/2303 VRB05KT 9999 FEW060
PROB40
TEMPO 2221/2303 4000 BR
Pas de NOTAMs connus pour ce terrain.
1 SIGMET publié pour la FIR Milano (LIMM) :
 
Turbulence forte
LIMM SIGMET 4 VALID 221730/222130 LIIP
LIMM MILANO FIR SEV TURB FCST W OF LINE N4650 E00919 - N4328 E01226 ABV FL110 STNR NC=



MET'MAP, la Météo Aéronautique d'un coup d'oeil ! - Copyright ORBIFLY Décembre 2007 - Disclaimer

ORBIFLY MET'MAP TEAM :

Programmation & Développement : Alexandra Zaïnal
Conception & Développement : Baudouin d'Aumeries
Co-Programmation & Développement : Marc-Olivier Méhu
Soutien technique & logistique : Manuel Goepfert

Contact : metmap@orbifly.com




SOURCES & CREDITS :

   NOAA